Time;durP1;ratioP1;P1;durP2;ratioP2;P2;SDS_P1;SDS_P2;PMS_P1;PMS_P2;Temp;Humidity;BMP_temperature;BMP_pressure;BME280_temperature;BME280_humidity;BME280_pressure;Samples;Min_cycle;Max_cycle;Signal;HPM_P1;HPM_P2
2022/01/31 00:02:16;;;;;;;;;;;5.90;73.20;;;;;;4951655;28;20463;-77
2022/01/31 00:04:44;;;;;;;;;;;6.00;73.50;;;;;;4949671;28;19925;-78
2022/01/31 00:07:11;;;;;;;;;;;6.10;71.60;;;;;;4946739;28;20586;-77
2022/01/31 00:09:37;;;;;;;;;;;6.10;71.70;;;;;;4946993;28;19922;-78
2022/01/31 00:12:07;;;;;;;;;;;6.20;71.60;;;;;;4948594;28;19929;-77
2022/01/31 00:14:39;;;;;;;;;;;6.20;70.10;;;;;;4950977;28;19921;-77
2022/01/31 00:17:04;;;;;;;;;;;6.10;70.00;;;;;;4945091;28;19922;-76
2022/01/31 00:19:30;;;;;;;;;;;6.10;70.90;;;;;;4945442;28;19914;-76
2022/01/31 00:21:56;;;;;;;;;;;6.00;70.80;;;;;;4947572;28;19925;-77
2022/01/31 00:24:21;;;;;;;;;;;6.00;70.80;;;;;;4944811;28;19919;-77
2022/01/31 00:26:47;;;;;;;;;;;6.10;69.90;;;;;;4945964;28;19911;-77
2022/01/31 00:29:12;;;;;;;;;;;6.00;71.20;;;;;;4944937;28;19922;-78
2022/01/31 00:31:38;;;;;;;;;;;6.10;70.80;;;;;;4944865;28;19921;-77
2022/01/31 00:34:03;;;;;;;;;;;6.00;69.30;;;;;;4948985;28;19925;-78
2022/01/31 00:36:29;;;;;;;;;;;6.00;68.90;;;;;;4946224;28;19965;-75
2022/01/31 00:38:54;;;;;;;;;;;6.00;69.90;;;;;;4944728;28;19957;-75
2022/01/31 00:41:20;;;;;;;;;;;6.00;69.80;;;;;;4945178;28;19938;-78
2022/01/31 00:43:56;;;;;;;;;;;5.90;70.10;;;;;;4946014;28;19945;-78
2022/01/31 00:46:27;;;;;;;;;;;5.90;71.10;;;;;;4948767;28;19929;-79
2022/01/31 00:48:53;;;;;;;;;;;6.00;70.50;;;;;;4943605;28;19922;-79
2022/01/31 00:51:19;;;;;;;;;;;6.00;69.80;;;;;;4945063;28;19934;-79
2022/01/31 00:53:44;;;;;;;;;;;6.10;69.90;;;;;;4949530;28;20369;-78
2022/01/31 00:56:10;;;;;;;;;;;6.00;68.20;;;;;;4945337;28;19922;-78
2022/01/31 00:58:35;;;;;;;;;;;6.00;69.10;;;;;;4949011;28;20719;-78
2022/01/31 01:01:01;;;;;;;;;;;6.20;68.70;;;;;;4946379;28;19922;-78
2022/01/31 01:03:27;;;;;;;;;;;6.30;66.30;;;;;;4945312;28;19961;-78
2022/01/31 01:05:53;;;;;;;;;;;6.30;67.00;;;;;;4944359;28;19910;-78
2022/01/31 01:08:18;;;;;;;;;;;6.40;67.70;;;;;;4944881;28;19969;-77
2022/01/31 01:10:44;;;;;;;;;;;6.40;67.80;;;;;;4945707;28;20137;-78
2022/01/31 01:13:10;;;;;;;;;;;6.50;68.00;;;;;;4944707;28;19922;-78
2022/01/31 01:15:35;;;;;;;;;;;6.60;68.00;;;;;;4948599;28;19964;-78
2022/01/31 01:18:01;;;;;;;;;;;6.60;67.60;;;;;;4946306;28;19914;-78
2022/01/31 01:20:26;;;;;;;;;;;6.60;68.10;;;;;;4946121;28;19922;-78
2022/01/31 01:22:52;;;;;;;;;;;6.60;67.70;;;;;;4946870;28;19965;-77
2022/01/31 01:25:18;;;;;;;;;;;6.60;68.10;;;;;;4946002;28;19915;-78
2022/01/31 01:27:46;;;;;;;;;;;6.50;66.70;;;;;;4945244;28;19923;-78
2022/01/31 01:30:14;;;;;;;;;;;6.30;68.50;;;;;;4947811;28;19918;-78
2022/01/31 01:35:26;;;;;;;;;;;6.50;68.90;;;;;;4946020;28;20387;-78
2022/01/31 01:37:51;;;;;;;;;;;6.40;68.80;;;;;;4944809;28;20017;-77
2022/01/31 01:40:17;;;;;;;;;;;6.40;69.10;;;;;;4946851;28;19914;-78
2022/01/31 01:42:42;;;;;;;;;;;6.40;68.50;;;;;;4947096;28;20661;-78
2022/01/31 01:45:08;;;;;;;;;;;6.40;68.70;;;;;;4948696;28;19915;-78
2022/01/31 01:47:34;;;;;;;;;;;6.40;68.20;;;;;;4943363;28;19918;-78
2022/01/31 01:50:00;;;;;;;;;;;6.30;67.90;;;;;;4945902;28;19929;-78
2022/01/31 01:52:25;;;;;;;;;;;6.20;68.60;;;;;;4941256;28;19936;-78
2022/01/31 01:54:51;;;;;;;;;;;6.20;68.20;;;;;;4945285;28;19919;-78
2022/01/31 01:57:17;;;;;;;;;;;6.00;69.00;;;;;;4944507;28;19914;-78
2022/01/31 01:59:43;;;;;;;;;;;6.00;69.10;;;;;;4941625;28;20377;-79
2022/01/31 02:02:08;;;;;;;;;;;5.90;68.70;;;;;;4945633;28;19981;-78
2022/01/31 02:04:34;;;;;;;;;;;6.00;69.10;;;;;;4943532;28;20284;-79
2022/01/31 02:07:00;;;;;;;;;;;6.00;69.30;;;;;;4944891;28;19918;-78
2022/01/31 02:09:28;;;;;;;;;;;6.00;68.30;;;;;;4945190;28;20299;-79
2022/01/31 02:11:54;;;;;;;;;;;6.00;68.20;;;;;;4945978;28;19969;-78
2022/01/31 02:14:31;;;;;;;;;;;6.00;67.90;;;;;;4941144;28;19927;-78
2022/01/31 02:16:56;;;;;;;;;;;6.00;68.30;;;;;;4946254;28;20017;-79
2022/01/31 02:19:22;;;;;;;;;;;6.10;67.10;;;;;;4946870;28;20009;-78
2022/01/31 02:21:52;;;;;;;;;;;6.00;66.90;;;;;;4943161;28;19914;-78
2022/01/31 02:24:18;;;;;;;;;;;6.00;67.90;;;;;;4946470;28;19922;-78
2022/01/31 02:26:44;;;;;;;;;;;6.10;66.40;;;;;;4941481;28;20399;-78
2022/01/31 02:29:11;;;;;;;;;;;6.10;67.40;;;;;;4944635;28;19922;-78
2022/01/31 02:31:37;;;;;;;;;;;6.20;66.90;;;;;;4944933;28;19930;-79
2022/01/31 02:34:02;;;;;;;;;;;6.30;66.30;;;;;;4943735;28;19915;-78
2022/01/31 02:36:28;;;;;;;;;;;6.30;66.60;;;;;;4943577;28;19934;-78
2022/01/31 02:38:53;;;;;;;;;;;6.40;66.10;;;;;;4945026;28;20497;-78
2022/01/31 02:41:19;;;;;;;;;;;6.40;65.00;;;;;;4945948;28;19918;-78
2022/01/31 02:43:49;;;;;;;;;;;6.50;65.30;;;;;;4944731;28;20005;-78
2022/01/31 02:46:15;;;;;;;;;;;6.50;65.40;;;;;;4946338;28;19937;-78
2022/01/31 02:48:41;;;;;;;;;;;6.50;66.10;;;;;;4942764;28;19915;-78
2022/01/31 02:51:10;;;;;;;;;;;6.50;65.40;;;;;;4944572;28;19926;-78
2022/01/31 02:53:40;;;;;;;;;;;6.50;65.20;;;;;;4941800;28;19953;-79
2022/01/31 02:56:06;;;;;;;;;;;6.50;65.10;;;;;;4943988;28;19923;-78
2022/01/31 02:58:32;;;;;;;;;;;6.50;65.30;;;;;;4942190;28;20672;-79
2022/01/31 03:00:58;;;;;;;;;;;6.40;65.80;;;;;;4943911;28;19919;-79
2022/01/31 03:03:24;;;;;;;;;;;6.40;66.30;;;;;;4943011;28;20495;-79
2022/01/31 03:05:49;;;;;;;;;;;6.40;66.30;;;;;;4943726;28;19965;-78
2022/01/31 03:08:15;;;;;;;;;;;6.30;65.50;;;;;;4940031;28;19937;-78
2022/01/31 03:10:41;;;;;;;;;;;6.10;66.00;;;;;;4940063;28;19989;-77
2022/01/31 03:13:06;;;;;;;;;;;5.90;66.70;;;;;;4944180;28;20364;-77
2022/01/31 03:15:33;;;;;;;;;;;5.80;66.90;;;;;;4947269;28;19928;-78
2022/01/31 03:17:59;;;;;;;;;;;5.70;67.40;;;;;;4943196;28;20025;-78
2022/01/31 03:20:24;;;;;;;;;;;5.80;68.10;;;;;;4946122;28;20312;-77
2022/01/31 03:22:50;;;;;;;;;;;5.60;68.30;;;;;;4944845;28;19925;-78
2022/01/31 03:25:16;;;;;;;;;;;5.40;68.50;;;;;;4944751;28;19976;-78
2022/01/31 03:27:42;;;;;;;;;;;5.40;68.70;;;;;;4944515;28;19949;-78
2022/01/31 03:30:10;;;;;;;;;;;5.40;67.70;;;;;;4946201;28;19923;-79
2022/01/31 03:32:35;;;;;;;;;;;5.30;67.50;;;;;;4946426;28;19921;-78
2022/01/31 03:35:01;;;;;;;;;;;5.30;67.30;;;;;;4944725;28;19918;-78
2022/01/31 03:37:28;;;;;;;;;;;5.30;69.10;;;;;;4919561;28;19922;-78
2022/01/31 03:39:53;;;;;;;;;;;5.40;69.10;;;;;;4944323;28;19922;-78
2022/01/31 03:42:19;;;;;;;;;;;5.50;69.40;;;;;;4944252;28;20023;-78
2022/01/31 03:44:45;;;;;;;;;;;5.50;68.40;;;;;;4944590;28;19953;-78
2022/01/31 03:47:11;;;;;;;;;;;5.50;69.30;;;;;;4945517;28;19914;-78
2022/01/31 03:49:36;;;;;;;;;;;5.60;69.40;;;;;;4945102;28;19925;-78
2022/01/31 03:52:02;;;;;;;;;;;5.70;68.60;;;;;;4944900;28;20584;-78
2022/01/31 03:54:28;;;;;;;;;;;5.70;68.10;;;;;;4944911;28;20380;-78
2022/01/31 03:56:53;;;;;;;;;;;5.60;68.90;;;;;;4942322;28;21312;-77
2022/01/31 03:59:19;;;;;;;;;;;5.70;69.30;;;;;;4943319;28;19921;-77
2022/01/31 04:01:44;;;;;;;;;;;5.60;69.50;;;;;;4945849;28;19921;-78
2022/01/31 04:04:10;;;;;;;;;;;5.40;69.40;;;;;;4945412;28;19925;-78
2022/01/31 04:06:39;;;;;;;;;;;5.40;70.10;;;;;;4942713;28;19918;-77
2022/01/31 04:09:05;;;;;;;;;;;5.50;71.00;;;;;;4943676;28;19923;-77
2022/01/31 04:11:31;;;;;;;;;;;5.50;70.70;;;;;;4945189;28;19926;-77
2022/01/31 04:13:57;;;;;;;;;;;5.50;71.20;;;;;;4944510;28;19922;-77
2022/01/31 04:16:22;;;;;;;;;;;5.40;71.00;;;;;;4943623;28;19918;-77
2022/01/31 04:18:48;;;;;;;;;;;5.40;71.30;;;;;;4943478;28;20029;-77
2022/01/31 04:21:14;;;;;;;;;;;5.40;71.50;;;;;;4943935;28;19918;-77
2022/01/31 04:23:39;;;;;;;;;;;5.30;71.60;;;;;;4942734;28;19919;-76
2022/01/31 04:26:13;;;;;;;;;;;5.30;71.80;;;;;;4945073;28;19914;-77
2022/01/31 04:28:48;;;;;;;;;;;5.20;72.50;;;;;;4941991;28;19915;-77
2022/01/31 04:31:36;;;;;;;;;;;5.10;72.50;;;;;;4949352;28;19914;-77
2022/01/31 04:34:00;;;;;;;;;;;5.10;72.20;;;;;;4949669;28;20017;-77
2022/01/31 04:36:25;;;;;;;;;;;5.20;72.60;;;;;;4949286;28;20464;-77
2022/01/31 04:38:51;;;;;;;;;;;5.20;72.90;;;;;;4945180;28;19933;-77
2022/01/31 04:41:16;;;;;;;;;;;5.30;72.60;;;;;;4929520;28;19923;-77
2022/01/31 04:43:44;;;;;;;;;;;5.30;71.70;;;;;;4946794;28;19950;-78
2022/01/31 04:46:10;;;;;;;;;;;5.40;71.90;;;;;;4948663;28;20288;-77
2022/01/31 04:48:36;;;;;;;;;;;5.40;71.90;;;;;;4948796;28;19988;-77
2022/01/31 04:51:02;;;;;;;;;;;5.40;71.10;;;;;;4948862;28;20009;-77
2022/01/31 04:53:27;;;;;;;;;;;5.50;71.60;;;;;;4947821;28;20136;-77
2022/01/31 04:55:53;;;;;;;;;;;5.60;71.30;;;;;;4948162;28;19952;-77
2022/01/31 04:58:28;;;;;;;;;;;5.60;70.20;;;;;;4941424;28;19921;-78
2022/01/31 05:00:53;;;;;;;;;;;5.70;69.90;;;;;;4948050;28;19918;-78
2022/01/31 05:03:20;;;;;;;;;;;5.80;70.70;;;;;;4945086;28;19918;-77
2022/01/31 05:05:45;;;;;;;;;;;5.80;70.10;;;;;;4947414;28;20458;-78
2022/01/31 05:08:11;;;;;;;;;;;5.80;69.20;;;;;;4942972;28;19923;-77
2022/01/31 05:10:49;;;;;;;;;;;5.80;68.40;;;;;;4944701;28;19926;-78
2022/01/31 05:13:15;;;;;;;;;;;5.90;67.10;;;;;;4929793;28;20288;-77
2022/01/31 05:15:41;;;;;;;;;;;5.80;68.30;;;;;;4946180;28;19962;-77
2022/01/31 05:18:07;;;;;;;;;;;6.00;68.30;;;;;;4946934;28;20411;-77
2022/01/31 05:20:33;;;;;;;;;;;6.00;67.10;;;;;;4947626;28;19914;-77
2022/01/31 05:22:58;;;;;;;;;;;6.00;66.70;;;;;;4946756;28;19961;-78
2022/01/31 05:25:24;;;;;;;;;;;6.10;66.20;;;;;;4946130;28;20375;-78
2022/01/31 05:27:49;;;;;;;;;;;6.00;66.10;;;;;;4940173;28;21086;-78
2022/01/31 05:30:16;;;;;;;;;;;6.00;66.30;;;;;;4945849;28;20006;-77
2022/01/31 05:32:43;;;;;;;;;;;6.00;66.20;;;;;;4948276;28;20352;-77
2022/01/31 05:35:08;;;;;;;;;;;6.10;65.20;;;;;;4946318;28;19950;-78
2022/01/31 05:37:35;;;;;;;;;;;6.10;64.60;;;;;;4948901;28;19953;-77
2022/01/31 05:40:01;;;;;;;;;;;6.10;65.40;;;;;;4945585;28;20373;-77
2022/01/31 05:42:26;;;;;;;;;;;6.00;64.60;;;;;;4947023;28;19918;-77
2022/01/31 05:44:52;;;;;;;;;;;6.10;64.40;;;;;;4943779;28;19918;-76
2022/01/31 05:47:17;;;;;;;;;;;6.00;63.90;;;;;;4944051;28;19922;-77
2022/01/31 05:49:43;;;;;;;;;;;6.00;65.40;;;;;;4947752;28;19997;-77
2022/01/31 05:52:08;;;;;;;;;;;6.10;65.10;;;;;;4942846;28;20008;-76
2022/01/31 05:54:35;;;;;;;;;;;6.20;65.10;;;;;;4947175;28;19949;-77
2022/01/31 05:57:01;;;;;;;;;;;6.10;64.00;;;;;;4943853;28;19929;-77
2022/01/31 05:59:27;;;;;;;;;;;6.00;64.30;;;;;;4944656;28;19926;-77
2022/01/31 06:01:53;;;;;;;;;;;6.00;65.10;;;;;;4944715;28;19910;-77
2022/01/31 06:04:18;;;;;;;;;;;6.00;64.70;;;;;;4944308;28;20388;-77
2022/01/31 06:06:44;;;;;;;;;;;6.00;64.60;;;;;;4944399;28;19989;-77
2022/01/31 06:09:09;;;;;;;;;;;6.00;64.10;;;;;;4939672;28;19914;-76
2022/01/31 06:11:35;;;;;;;;;;;5.90;64.10;;;;;;4947579;28;19926;-77
2022/01/31 06:14:02;;;;;;;;;;;5.90;64.20;;;;;;4945924;28;19925;-77
2022/01/31 06:16:28;;;;;;;;;;;5.90;65.70;;;;;;4946312;28;19933;-78
2022/01/31 06:18:53;;;;;;;;;;;5.90;65.10;;;;;;4941342;28;19922;-78
2022/01/31 06:21:19;;;;;;;;;;;6.00;65.10;;;;;;4943571;28;20005;-77
2022/01/31 06:23:44;;;;;;;;;;;6.10;65.60;;;;;;4944451;28;19914;-77
2022/01/31 06:26:10;;;;;;;;;;;6.30;65.50;;;;;;4944421;28;19918;-77
2022/01/31 06:28:36;;;;;;;;;;;6.30;64.00;;;;;;4945939;28;19926;-78
2022/01/31 06:31:01;;;;;;;;;;;6.30;63.60;;;;;;4942141;28;19926;-78
2022/01/31 06:33:27;;;;;;;;;;;6.40;63.80;;;;;;4944147;28;19930;-77
2022/01/31 06:35:53;;;;;;;;;;;6.50;64.00;;;;;;4944910;28;19911;-77
2022/01/31 06:38:18;;;;;;;;;;;6.50;63.70;;;;;;4945667;28;19922;-77
2022/01/31 06:40:44;;;;;;;;;;;6.60;63.10;;;;;;4946385;28;19951;-78
2022/01/31 06:43:09;;;;;;;;;;;6.60;63.10;;;;;;4945439;28;20537;-77
2022/01/31 06:45:35;;;;;;;;;;;6.60;62.70;;;;;;4945562;28;19922;-77
2022/01/31 06:48:00;;;;;;;;;;;6.70;62.70;;;;;;4947539;28;19915;-76
2022/01/31 06:50:26;;;;;;;;;;;6.70;63.10;;;;;;4949504;28;19927;-77
2022/01/31 06:52:55;;;;;;;;;;;6.70;63.40;;;;;;4946928;28;19918;-78
2022/01/31 06:55:21;;;;;;;;;;;6.80;61.70;;;;;;4948028;28;20025;-78
2022/01/31 06:57:48;;;;;;;;;;;6.80;62.00;;;;;;4949606;28;19965;-78
2022/01/31 07:00:13;;;;;;;;;;;6.80;62.00;;;;;;4946166;28;19914;-78
2022/01/31 07:02:39;;;;;;;;;;;6.80;62.30;;;;;;4949516;28;20404;-77
2022/01/31 07:05:05;;;;;;;;;;;6.80;62.50;;;;;;4947193;28;20001;-77
2022/01/31 07:07:31;;;;;;;;;;;6.80;63.20;;;;;;4947378;28;20327;-78
2022/01/31 07:09:57;;;;;;;;;;;6.80;62.40;;;;;;4948657;28;19957;-78
2022/01/31 07:12:29;;;;;;;;;;;6.80;62.70;;;;;;4949819;28;20369;-78
2022/01/31 07:14:55;;;;;;;;;;;6.70;62.80;;;;;;4945745;28;19962;-78
2022/01/31 07:17:20;;;;;;;;;;;6.70;62.90;;;;;;4951302;28;19918;-78
2022/01/31 07:19:46;;;;;;;;;;;6.70;63.10;;;;;;4950448;28;19914;-78
2022/01/31 07:22:14;;;;;;;;;;;6.70;63.30;;;;;;4945766;28;19945;-77
2022/01/31 07:27:05;;;;;;;;;;;6.80;63.00;;;;;;4946362;28;19997;-78
2022/01/31 07:29:31;;;;;;;;;;;6.70;63.00;;;;;;4948656;28;19914;-78
2022/01/31 07:31:57;;;;;;;;;;;6.70;62.50;;;;;;4944903;28;20008;-78
2022/01/31 07:34:24;;;;;;;;;;;6.70;62.90;;;;;;4945741;28;19914;-78
2022/01/31 07:36:50;;;;;;;;;;;6.70;63.30;;;;;;4946228;28;19914;-77
2022/01/31 07:39:16;;;;;;;;;;;6.70;63.50;;;;;;4950684;28;20891;-78
2022/01/31 07:41:42;;;;;;;;;;;6.80;63.20;;;;;;4945389;28;19920;-78
2022/01/31 07:44:08;;;;;;;;;;;6.70;63.30;;;;;;4946304;28;19918;-78
2022/01/31 07:46:34;;;;;;;;;;;6.70;63.60;;;;;;4944261;28;19981;-78
2022/01/31 07:49:00;;;;;;;;;;;6.70;63.50;;;;;;4946569;28;20320;-78
2022/01/31 07:51:26;;;;;;;;;;;6.70;63.50;;;;;;4945841;28;20324;-77
2022/01/31 07:53:51;;;;;;;;;;;6.80;64.00;;;;;;4945710;28;19922;-78
2022/01/31 07:56:17;;;;;;;;;;;6.80;63.80;;;;;;4942443;28;19973;-78
2022/01/31 07:58:43;;;;;;;;;;;6.80;63.90;;;;;;4936664;28;20270;-77
2022/01/31 08:01:09;;;;;;;;;;;6.80;63.80;;;;;;4940536;28;19929;-77
2022/01/31 08:03:35;;;;;;;;;;;6.80;64.00;;;;;;4937642;28;19922;-77
2022/01/31 08:06:02;;;;;;;;;;;6.80;63.30;;;;;;4938365;28;19941;-78
2022/01/31 08:08:29;;;;;;;;;;;6.80;64.10;;;;;;4938238;28;19992;-78
2022/01/31 08:10:56;;;;;;;;;;;6.80;64.10;;;;;;4943060;28;19942;-77
2022/01/31 08:13:24;;;;;;;;;;;6.80;65.00;;;;;;4937535;28;19965;-77
2022/01/31 08:16:02;;;;;;;;;;;6.80;63.90;;;;;;4945308;28;19969;-77
2022/01/31 08:18:28;;;;;;;;;;;6.80;64.40;;;;;;4946295;28;19925;-77
2022/01/31 08:20:53;;;;;;;;;;;6.80;64.60;;;;;;4946590;28;20364;-77
2022/01/31 08:23:18;;;;;;;;;;;6.80;64.40;;;;;;4941932;28;20387;-77
2022/01/31 08:25:48;;;;;;;;;;;6.80;64.80;;;;;;4945072;28;19923;-77
2022/01/31 08:28:14;;;;;;;;;;;6.80;65.10;;;;;;4938392;28;20361;-76
2022/01/31 08:30:55;;;;;;;;;;;6.80;64.80;;;;;;4943072;28;19918;-78
2022/01/31 08:36:13;;;;;;;;;;;6.80;64.90;;;;;;4915499;28;20364;-78
2022/01/31 08:38:40;;;;;;;;;;;6.80;65.50;;;;;;4945611;28;19973;-77
2022/01/31 08:41:07;;;;;;;;;;;6.80;65.10;;;;;;4947875;28;19910;-77
2022/01/31 08:43:33;;;;;;;;;;;6.90;65.20;;;;;;4947691;28;19915;-78
2022/01/31 08:45:59;;;;;;;;;;;6.90;64.80;;;;;;4941912;28;20408;-77
2022/01/31 08:48:25;;;;;;;;;;;7.00;64.90;;;;;;4946075;28;19910;-77
2022/01/31 08:50:52;;;;;;;;;;;7.00;64.50;;;;;;4942306;28;19961;-77
2022/01/31 08:53:17;;;;;;;;;;;7.10;64.30;;;;;;4942820;28;19933;-78
2022/01/31 08:55:48;;;;;;;;;;;7.10;65.20;;;;;;4943164;28;19914;-77
2022/01/31 08:58:14;;;;;;;;;;;7.20;64.30;;;;;;4945164;28;20005;-78
2022/01/31 09:00:40;;;;;;;;;;;7.20;64.40;;;;;;4945207;28;20029;-78
2022/01/31 09:03:21;;;;;;;;;;;7.20;64.40;;;;;;4940184;28;19910;-75
2022/01/31 09:05:47;;;;;;;;;;;7.30;64.10;;;;;;4940591;28;20270;-79
2022/01/31 09:08:12;;;;;;;;;;;7.30;62.50;;;;;;4943650;28;19926;-75
2022/01/31 09:10:39;;;;;;;;;;;7.30;64.00;;;;;;4944496;28;20296;-76
2022/01/31 09:13:05;;;;;;;;;;;7.40;63.90;;;;;;4945184;28;19922;-77
2022/01/31 09:15:30;;;;;;;;;;;7.40;64.10;;;;;;4946896;28;20632;-78
2022/01/31 09:17:56;;;;;;;;;;;7.40;63.30;;;;;;4948309;28;19923;-78
2022/01/31 09:20:21;;;;;;;;;;;7.50;63.20;;;;;;4947300;28;20375;-77
2022/01/31 09:22:47;;;;;;;;;;;7.50;62.50;;;;;;4948021;28;19914;-78
2022/01/31 09:25:14;;;;;;;;;;;7.50;61.80;;;;;;4947088;28;19921;-78
2022/01/31 09:27:40;;;;;;;;;;;7.60;62.00;;;;;;4947185;28;19985;-78
2022/01/31 09:30:07;;;;;;;;;;;7.60;61.80;;;;;;4947301;28;20017;-77
2022/01/31 09:32:32;;;;;;;;;;;7.60;61.10;;;;;;4945689;28;19926;-77
2022/01/31 09:34:58;;;;;;;;;;;7.60;61.40;;;;;;4948452;28;19921;-76
2022/01/31 09:37:24;;;;;;;;;;;7.60;61.20;;;;;;4946780;28;19923;-76
2022/01/31 09:39:50;;;;;;;;;;;7.60;62.00;;;;;;4931386;28;20672;-76
2022/01/31 09:42:24;;;;;;;;;;;7.70;62.00;;;;;;4947070;28;19914;-76
2022/01/31 09:47:22;;;;;;;;;;;7.70;61.40;;;;;;4945468;28;19921;-76
2022/01/31 09:49:47;;;;;;;;;;;7.70;61.30;;;;;;4945931;28;19918;-76
2022/01/31 09:52:13;;;;;;;;;;;7.70;61.20;;;;;;4948060;28;19918;-77
2022/01/31 09:54:39;;;;;;;;;;;7.70;60.80;;;;;;4946749;28;19918;-76
2022/01/31 09:57:04;;;;;;;;;;;7.70;59.80;;;;;;4946365;28;20058;-76
2022/01/31 09:59:30;;;;;;;;;;;7.60;60.00;;;;;;4947482;28;20584;-77
2022/01/31 10:01:57;;;;;;;;;;;7.60;60.50;;;;;;4947165;28;19919;-76
2022/01/31 10:04:25;;;;;;;;;;;7.70;60.00;;;;;;4949000;28;19922;-76
2022/01/31 10:06:52;;;;;;;;;;;7.70;59.90;;;;;;4944306;28;19925;-76
2022/01/31 10:09:25;;;;;;;;;;;7.70;59.90;;;;;;4946600;28;20029;-77
2022/01/31 10:11:56;;;;;;;;;;;7.70;59.80;;;;;;4944905;28;20562;-76
2022/01/31 10:17:20;;;;;;;;;;;7.70;59.80;;;;;;4951795;28;20379;-77
2022/01/31 10:19:46;;;;;;;;;;;7.70;59.70;;;;;;4945968;28;19977;-77
2022/01/31 10:22:12;;;;;;;;;;;7.70;59.80;;;;;;4945758;28;20300;-77
2022/01/31 10:24:39;;;;;;;;;;;7.70;60.20;;;;;;4949609;28;19977;-76
2022/01/31 10:27:06;;;;;;;;;;;7.70;60.50;;;;;;4952039;28;19924;-76
2022/01/31 10:29:32;;;;;;;;;;;7.70;60.50;;;;;;4947862;28;20060;-77
2022/01/31 10:32:03;;;;;;;;;;;7.70;60.50;;;;;;4934722;29;20386;-76
2022/01/31 10:34:31;;;;;;;;;;;7.60;61.00;;;;;;4948975;28;19925;-77
2022/01/31 10:37:23;;;;;;;;;;;7.70;60.90;;;;;;4948574;28;19918;-76
2022/01/31 10:45:38;;;;;;;;;;;7.60;61.50;;;;;;4951863;28;19984;-77
2022/01/31 10:53:37;;;;;;;;;;;7.70;62.10;;;;;;4950322;28;20375;-77
2022/01/31 10:56:02;;;;;;;;;;;7.70;62.10;;;;;;4947654;28;19911;-77
2022/01/31 10:58:30;;;;;;;;;;;7.60;61.80;;;;;;4949500;28;19922;-77
2022/01/31 11:01:10;;;;;;;;;;;7.60;61.80;;;;;;4951902;28;19922;-77
2022/01/31 11:03:35;;;;;;;;;;;7.50;61.20;;;;;;4951327;28;20411;-75
2022/01/31 11:06:10;;;;;;;;;;;7.50;61.50;;;;;;4950396;28;19918;-77
2022/01/31 11:08:36;;;;;;;;;;;7.50;62.00;;;;;;4949559;28;19922;-76
2022/01/31 11:11:02;;;;;;;;;;;7.60;61.30;;;;;;4948411;28;19933;-76
2022/01/31 11:13:30;;;;;;;;;;;7.60;61.40;;;;;;4947397;28;20383;-76
2022/01/31 11:15:56;;;;;;;;;;;7.60;61.30;;;;;;4944856;28;20128;-76
2022/01/31 11:18:23;;;;;;;;;;;7.60;62.40;;;;;;4945210;28;19929;-77
2022/01/31 11:20:52;;;;;;;;;;;7.60;62.60;;;;;;4944671;28;19922;-77
2022/01/31 11:23:20;;;;;;;;;;;7.70;61.80;;;;;;4944159;28;19918;-78
2022/01/31 11:25:47;;;;;;;;;;;7.70;61.20;;;;;;4943915;28;19914;-75
2022/01/31 11:28:13;;;;;;;;;;;7.70;61.70;;;;;;4944795;28;19965;-75
2022/01/31 11:30:40;;;;;;;;;;;7.70;61.90;;;;;;4946871;28;19926;-75
2022/01/31 11:33:06;;;;;;;;;;;7.70;61.40;;;;;;4943127;28;20641;-75
2022/01/31 11:35:32;;;;;;;;;;;7.80;62.40;;;;;;4946098;28;19922;-76
2022/01/31 11:37:58;;;;;;;;;;;7.80;61.80;;;;;;4943692;28;19926;-75
2022/01/31 11:40:24;;;;;;;;;;;7.80;61.90;;;;;;4946482;28;20360;-75
2022/01/31 11:42:50;;;;;;;;;;;7.80;61.30;;;;;;4947409;28;19962;-75
2022/01/31 11:45:18;;;;;;;;;;;7.80;62.20;;;;;;4946379;28;20505;-75
2022/01/31 11:47:45;;;;;;;;;;;7.80;62.30;;;;;;4943600;28;19914;-75
2022/01/31 11:50:14;;;;;;;;;;;7.90;62.40;;;;;;4946605;28;19918;-77
2022/01/31 11:53:05;;;;;;;;;;;7.90;61.50;;;;;;4946097;28;19925;-77
2022/01/31 11:55:34;;;;;;;;;;;8.00;61.60;;;;;;4944196;28;19957;-77
2022/01/31 11:58:00;;;;;;;;;;;8.00;61.50;;;;;;4946033;28;20001;-77
2022/01/31 12:00:28;;;;;;;;;;;8.00;60.50;;;;;;4947791;28;20778;-77
2022/01/31 12:02:55;;;;;;;;;;;8.00;60.90;;;;;;4945746;28;20001;-77
2022/01/31 12:05:22;;;;;;;;;;;8.00;61.00;;;;;;4947558;28;20001;-77
2022/01/31 12:08:09;;;;;;;;;;;8.00;60.90;;;;;;4949024;28;19924;-77
2022/01/31 12:10:41;;;;;;;;;;;8.00;60.80;;;;;;4950600;28;19918;-77
2022/01/31 12:13:27;;;;;;;;;;;8.00;59.90;;;;;;4947659;28;19922;-77
2022/01/31 12:16:07;;;;;;;;;;;7.90;60.20;;;;;;4949463;28;19922;-77
2022/01/31 12:18:48;;;;;;;;;;;7.90;61.50;;;;;;4949852;28;19930;-77
2022/01/31 12:24:07;;;;;;;;;;;7.90;60.40;;;;;;4947836;28;19957;-76
2022/01/31 12:26:32;;;;;;;;;;;7.80;59.90;;;;;;4944395;28;19922;-77
2022/01/31 12:28:59;;;;;;;;;;;7.80;60.30;;;;;;4944925;28;19910;-77
2022/01/31 12:31:29;;;;;;;;;;;7.80;60.90;;;;;;4945507;28;19919;-77
2022/01/31 12:33:54;;;;;;;;;;;7.90;61.00;;;;;;4943779;28;19919;-77
2022/01/31 12:36:32;;;;;;;;;;;7.90;61.30;;;;;;4942871;28;20358;-77
2022/01/31 12:38:58;;;;;;;;;;;7.90;60.80;;;;;;4945072;28;20688;-77
2022/01/31 12:41:29;;;;;;;;;;;8.00;61.10;;;;;;4943903;28;20009;-76
2022/01/31 12:44:14;;;;;;;;;;;8.00;61.10;;;;;;4945533;28;19914;-77
2022/01/31 12:46:48;;;;;;;;;;;8.00;61.50;;;;;;4945352;28;19915;-77
2022/01/31 12:49:14;;;;;;;;;;;7.90;61.10;;;;;;4941230;28;20424;-77
2022/01/31 12:52:03;;;;;;;;;;;7.90;61.20;;;;;;4944483;28;19928;-77
2022/01/31 12:54:29;;;;;;;;;;;7.90;60.80;;;;;;4943979;28;19918;-77
2022/01/31 12:56:55;;;;;;;;;;;7.90;60.60;;;;;;4946604;28;19969;-77
2022/01/31 12:59:21;;;;;;;;;;;7.80;60.60;;;;;;4944713;28;20255;-77
2022/01/31 13:01:48;;;;;;;;;;;7.80;60.80;;;;;;4946366;28;19922;-77
2022/01/31 13:04:15;;;;;;;;;;;7.80;61.20;;;;;;4932313;28;19925;-77
2022/01/31 13:06:45;;;;;;;;;;;7.80;60.80;;;;;;4923536;28;19933;-78
2022/01/31 13:09:21;;;;;;;;;;;7.80;60.50;;;;;;4938902;28;19918;-78
2022/01/31 13:11:49;;;;;;;;;;;7.70;61.40;;;;;;4936806;28;20345;-78
2022/01/31 13:14:16;;;;;;;;;;;7.70;61.10;;;;;;4938801;28;19957;-77
2022/01/31 13:16:43;;;;;;;;;;;7.70;61.10;;;;;;4939139;28;19914;-78
2022/01/31 13:19:13;;;;;;;;;;;7.70;61.20;;;;;;4939605;28;19940;-77
2022/01/31 13:21:39;;;;;;;;;;;7.60;60.90;;;;;;4937994;28;19929;-77
2022/01/31 13:24:05;;;;;;;;;;;7.60;60.80;;;;;;4939129;28;20527;-78
2022/01/31 13:26:45;;;;;;;;;;;7.60;61.20;;;;;;4938745;28;19918;-78
2022/01/31 13:29:11;;;;;;;;;;;7.60;61.70;;;;;;4939464;28;19919;-78
2022/01/31 13:31:40;;;;;;;;;;;7.60;61.90;;;;;;4938126;28;20005;-78
2022/01/31 13:34:06;;;;;;;;;;;7.60;61.90;;;;;;4937874;28;20535;-78
2022/01/31 13:36:34;;;;;;;;;;;7.60;62.50;;;;;;4940762;28;19919;-78
2022/01/31 13:38:59;;;;;;;;;;;7.60;62.10;;;;;;4938854;28;19997;-78
2022/01/31 13:41:25;;;;;;;;;;;7.70;62.90;;;;;;4939827;28;19922;-77
2022/01/31 13:43:51;;;;;;;;;;;7.70;62.90;;;;;;4938903;28;19929;-78
2022/01/31 13:46:29;;;;;;;;;;;7.70;62.60;;;;;;4939321;28;19925;-77
2022/01/31 13:49:09;;;;;;;;;;;7.70;62.60;;;;;;4939211;28;19917;-78
2022/01/31 13:51:39;;;;;;;;;;;7.70;61.90;;;;;;4940855;28;19929;-77
2022/01/31 13:54:31;;;;;;;;;;;7.70;62.30;;;;;;4938703;28;19945;-77
2022/01/31 13:56:58;;;;;;;;;;;7.80;62.70;;;;;;4935661;28;20005;-77
2022/01/31 13:59:24;;;;;;;;;;;7.80;62.70;;;;;;4938534;28;19978;-77
2022/01/31 14:02:04;;;;;;;;;;;7.80;62.60;;;;;;4937864;28;20009;-77
2022/01/31 14:04:31;;;;;;;;;;;7.80;62.90;;;;;;4938382;28;20302;-77
2022/01/31 14:06:56;;;;;;;;;;;7.90;63.00;;;;;;4939433;28;19918;-77
2022/01/31 14:09:29;;;;;;;;;;;7.80;63.30;;;;;;4937954;28;19926;-77
2022/01/31 14:11:54;;;;;;;;;;;7.90;63.50;;;;;;4939463;28;19914;-77
2022/01/31 14:14:20;;;;;;;;;;;8.00;63.20;;;;;;4921430;28;19933;-77
2022/01/31 14:16:46;;;;;;;;;;;8.00;63.40;;;;;;4933910;28;19918;-77
2022/01/31 14:19:12;;;;;;;;;;;8.00;63.50;;;;;;4936794;28;19922;-77
2022/01/31 14:21:39;;;;;;;;;;;7.90;63.00;;;;;;4937581;28;19918;-78
2022/01/31 14:24:05;;;;;;;;;;;7.90;62.90;;;;;;4936326;28;19914;-77
2022/01/31 14:26:51;;;;;;;;;;;7.90;62.70;;;;;;4937865;28;19918;-77
2022/01/31 14:29:17;;;;;;;;;;;8.00;62.40;;;;;;4940538;28;19949;-77
2022/01/31 14:31:46;;;;;;;;;;;8.00;62.60;;;;;;4943339;28;20527;-77
2022/01/31 14:34:14;;;;;;;;;;;8.00;62.60;;;;;;4942983;28;19925;-77
2022/01/31 14:36:40;;;;;;;;;;;8.00;62.70;;;;;;4942817;28;20404;-77
2022/01/31 14:47:44;;;;;;;;;;;8.00;63.30;;;;;;4945349;28;19937;-77
2022/01/31 14:50:11;;;;;;;;;;;7.90;63.70;;;;;;4945594;28;19922;-77
2022/01/31 14:52:37;;;;;;;;;;;7.90;64.90;;;;;;4944946;28;19926;-77
2022/01/31 14:55:10;;;;;;;;;;;8.00;64.10;;;;;;4945869;28;19925;-77
2022/01/31 14:57:36;;;;;;;;;;;7.90;65.00;;;;;;4944920;28;19910;-77
2022/01/31 15:00:12;;;;;;;;;;;7.90;66.00;;;;;;4948686;28;19923;-77
2022/01/31 15:02:38;;;;;;;;;;;7.90;66.40;;;;;;4944228;28;20415;-77
2022/01/31 15:05:05;;;;;;;;;;;7.80;67.50;;;;;;4946158;28;19914;-77
2022/01/31 15:07:31;;;;;;;;;;;7.80;68.30;;;;;;4947604;28;19906;-76
2022/01/31 15:09:56;;;;;;;;;;;7.70;70.10;;;;;;4947811;28;20387;-77